createdAt,value
2023-09-25T00:01:23.195Z,5.65
2023-09-25T00:03:50.403Z,3.58
2023-09-25T00:06:17.575Z,3.10
2023-09-25T00:08:44.530Z,5.90
2023-09-25T00:11:11.201Z,7.03
2023-09-25T00:13:37.991Z,5.47
2023-09-25T00:16:05.382Z,4.55
2023-09-25T00:18:32.300Z,4.32
2023-09-25T00:20:59.421Z,5.78
2023-09-25T00:23:26.220Z,4.75
2023-09-25T00:26:01.324Z,4.80
2023-09-25T00:28:28.361Z,6.55
2023-09-25T00:30:55.228Z,8.75
2023-09-25T00:33:22.222Z,4.57
2023-09-25T00:35:49.607Z,5.32
2023-09-25T00:38:16.522Z,6.50
2023-09-25T00:40:44.035Z,10.70
2023-09-25T00:43:14.245Z,13.60
2023-09-25T00:45:43.206Z,7.38
2023-09-25T00:48:27.734Z,8.93
2023-09-25T00:50:59.986Z,14.57
2023-09-25T00:53:28.576Z,11.10
2023-09-25T00:55:56.470Z,17.05
2023-09-25T00:58:24.953Z,9.95
2023-09-25T01:00:51.980Z,6.22
2023-09-25T01:03:19.907Z,11.95
2023-09-25T01:05:47.115Z,10.73
2023-09-25T01:08:13.979Z,7.32
2023-09-25T01:10:43.906Z,5.70
2023-09-25T01:13:11.573Z,10.75
2023-09-25T01:15:40.390Z,10.32
2023-09-25T01:18:09.482Z,10.13
2023-09-25T01:20:37.504Z,8.00
2023-09-25T01:23:04.772Z,7.38
2023-09-25T01:25:31.565Z,8.50
2023-09-25T01:27:58.317Z,7.22
2023-09-25T01:30:25.231Z,10.38
2023-09-25T01:32:53.572Z,22.13
2023-09-25T01:35:24.257Z,17.02
2023-09-25T01:37:55.636Z,26.25
2023-09-25T01:40:22.422Z,16.55
2023-09-25T01:42:49.318Z,13.45
2023-09-25T01:45:19.513Z,28.30
2023-09-25T01:50:21.967Z,13.35
2023-09-25T01:52:53.146Z,32.22
2023-09-25T01:57:47.703Z,28.15
2023-09-25T02:00:15.042Z,21.67
2023-09-25T02:02:44.840Z,48.65
2023-09-25T02:05:12.099Z,31.55
2023-09-25T02:07:39.087Z,55.95
2023-09-25T02:10:07.939Z,76.18
2023-09-25T02:12:35.406Z,244.30
2023-09-25T02:15:05.798Z,266.30
2023-09-25T02:17:33.607Z,85.78
2023-09-25T02:20:20.844Z,98.15
2023-09-25T02:22:48.795Z,61.58
2023-09-25T02:25:16.296Z,128.52
2023-09-25T02:27:43.171Z,112.05
2023-09-25T02:30:11.631Z,29.65
2023-09-25T02:32:38.756Z,43.15
2023-09-25T02:35:06.500Z,19.33
2023-09-25T02:37:33.690Z,16.38
2023-09-25T02:40:00.446Z,9.57
2023-09-25T02:42:27.738Z,12.75
2023-09-25T02:44:54.398Z,7.88
2023-09-25T02:47:21.116Z,6.40
2023-09-25T02:49:47.726Z,5.88
2023-09-25T02:52:14.610Z,7.75
2023-09-25T02:54:41.253Z,4.88
2023-09-25T02:57:08.046Z,5.97
2023-09-25T02:59:34.776Z,13.40
2023-09-25T03:02:03.495Z,6.95
2023-09-25T03:04:30.269Z,11.07
2023-09-25T03:06:57.952Z,19.30
2023-09-25T03:09:24.739Z,14.30
2023-09-25T03:11:51.484Z,19.33
2023-09-25T03:14:18.136Z,11.40
2023-09-25T03:16:46.898Z,8.40
2023-09-25T03:19:14.061Z,7.65
2023-09-25T03:21:42.812Z,11.82
2023-09-25T03:24:10.064Z,13.98
2023-09-25T03:26:38.146Z,16.70
2023-09-25T03:29:08.306Z,13.75
2023-09-25T03:31:35.151Z,10.02
2023-09-25T03:34:02.231Z,7.22
2023-09-25T03:36:29.231Z,6.07
2023-09-25T03:38:57.106Z,4.90
2023-09-25T03:41:23.948Z,6.85
2023-09-25T03:43:51.356Z,8.07
2023-09-25T03:46:18.172Z,6.13
2023-09-25T03:48:48.333Z,5.05
2023-09-25T03:51:15.927Z,5.15
2023-09-25T03:53:42.636Z,3.38
2023-09-25T03:56:09.374Z,3.70
2023-09-25T03:58:36.063Z,9.40
2023-09-25T04:01:03.048Z,5.70
2023-09-25T04:03:32.174Z,5.78
2023-09-25T04:05:59.526Z,3.42
2023-09-25T04:08:26.228Z,5.65
2023-09-25T04:10:53.334Z,4.35
2023-09-25T04:13:23.631Z,4.22
2023-09-25T04:15:52.471Z,7.22
2023-09-25T04:18:20.451Z,6.05
2023-09-25T04:20:47.722Z,5.97
2023-09-25T04:23:15.100Z,7.07
2023-09-25T04:25:42.592Z,6.13
2023-09-25T04:28:09.647Z,6.35
2023-09-25T04:30:44.523Z,4.05
2023-09-25T04:33:11.791Z,5.30
2023-09-25T04:35:38.744Z,6.53
2023-09-25T04:38:05.505Z,6.55
2023-09-25T04:40:32.524Z,3.88
2023-09-25T04:43:01.414Z,5.03
2023-09-25T04:45:30.719Z,4.85
2023-09-25T04:47:58.648Z,6.00
2023-09-25T04:50:25.745Z,6.43
2023-09-25T04:52:53.226Z,6.53
2023-09-25T04:55:19.959Z,5.82
2023-09-25T04:57:48.058Z,4.90
2023-09-25T05:00:26.684Z,4.22
2023-09-25T05:02:58.323Z,4.78
2023-09-25T05:05:26.216Z,4.32
2023-09-25T05:07:57.047Z,5.05
2023-09-25T05:10:29.099Z,3.95
2023-09-25T05:12:57.110Z,7.35
2023-09-25T05:15:25.399Z,5.15
2023-09-25T05:17:52.812Z,4.28
2023-09-25T05:20:23.937Z,6.40
2023-09-25T05:22:56.365Z,7.65
2023-09-25T05:25:24.071Z,3.88
2023-09-25T05:27:53.659Z,5.60
2023-09-25T05:30:20.791Z,4.10
2023-09-25T05:32:52.760Z,6.63
2023-09-25T05:35:20.464Z,5.22
2023-09-25T05:37:49.212Z,4.60
2023-09-25T05:40:16.996Z,6.28
2023-09-25T05:42:48.628Z,5.25
2023-09-25T05:45:17.757Z,5.30
2023-09-25T05:47:46.022Z,10.40
2023-09-25T05:50:13.404Z,7.85
2023-09-25T05:52:40.966Z,4.78
2023-09-25T05:55:08.957Z,4.53
2023-09-25T05:57:36.106Z,6.90
2023-09-25T06:00:11.057Z,5.93
2023-09-25T06:02:39.479Z,8.90
2023-09-25T06:05:07.464Z,8.00
2023-09-25T06:07:36.321Z,8.02
2023-09-25T06:10:05.347Z,6.63
2023-09-25T06:12:32.850Z,5.82
2023-09-25T06:14:59.582Z,6.20
2023-09-25T06:17:28.979Z,6.05
2023-09-25T06:19:55.820Z,6.22
2023-09-25T06:22:22.838Z,6.25
2023-09-25T06:24:52.497Z,7.45
2023-09-25T06:27:19.201Z,6.43
2023-09-25T06:29:46.594Z,6.30
2023-09-25T06:32:13.230Z,9.85
2023-09-25T06:34:43.080Z,6.70
2023-09-25T06:37:10.040Z,5.55
2023-09-25T06:39:36.768Z,6.00
2023-09-25T06:42:04.661Z,4.97
2023-09-25T06:44:31.680Z,6.45
2023-09-25T06:46:58.500Z,6.03
2023-09-25T06:49:25.465Z,5.40
2023-09-25T06:51:52.176Z,5.57
2023-09-25T06:54:19.087Z,6.53
2023-09-25T06:56:45.823Z,5.10
2023-09-25T06:59:12.874Z,6.13
2023-09-25T07:01:39.800Z,6.78
2023-09-25T07:04:07.731Z,7.60
2023-09-25T07:06:34.825Z,6.22
2023-09-25T07:09:01.675Z,7.55
2023-09-25T07:11:28.516Z,6.40
2023-09-25T07:13:55.215Z,8.35
2023-09-25T07:16:22.026Z,4.45
2023-09-25T07:18:49.422Z,6.03
2023-09-25T07:21:16.885Z,4.75
2023-09-25T07:23:44.093Z,5.40
2023-09-25T07:26:10.833Z,6.90
2023-09-25T07:28:38.244Z,5.18
2023-09-25T07:31:07.380Z,6.40
2023-09-25T07:33:35.736Z,5.28
2023-09-25T07:36:06.795Z,5.20
2023-09-25T07:38:33.598Z,4.18
2023-09-25T07:41:02.679Z,5.55
2023-09-25T07:48:31.477Z,3.40
2023-09-25T07:50:59.628Z,5.28
2023-09-25T07:53:27.667Z,4.32
2023-09-25T07:55:54.394Z,5.25
2023-09-25T07:58:21.173Z,4.45
2023-09-25T08:00:52.077Z,4.57
2023-09-25T08:03:23.626Z,5.15
2023-09-25T08:05:50.697Z,4.45
2023-09-25T08:08:17.545Z,5.05
2023-09-25T08:10:48.173Z,4.85
2023-09-25T08:15:43.731Z,4.72
2023-09-25T08:18:10.578Z,5.18
2023-09-25T08:20:37.401Z,4.05
2023-09-25T08:23:04.503Z,4.40
2023-09-25T08:25:31.804Z,5.65
2023-09-25T08:27:58.959Z,4.20
2023-09-25T08:30:25.981Z,3.83
2023-09-25T08:32:54.968Z,4.25
2023-09-25T08:35:21.904Z,3.95
2023-09-25T08:37:48.960Z,5.22
2023-09-25T08:40:16.055Z,5.28
2023-09-25T08:42:44.136Z,3.90
2023-09-25T08:45:10.915Z,3.13
2023-09-25T08:47:40.025Z,5.97
2023-09-25T08:50:09.787Z,4.10
2023-09-25T08:52:37.005Z,5.43
2023-09-25T08:55:05.435Z,4.93
2023-09-25T08:57:32.344Z,3.95
2023-09-25T09:00:16.124Z,3.35
2023-09-25T09:02:45.098Z,3.42
2023-09-25T09:05:12.881Z,3.35
2023-09-25T09:07:55.478Z,2.95
2023-09-25T09:10:22.502Z,3.67
2023-09-25T09:13:02.677Z,3.88
2023-09-25T09:15:31.448Z,2.90
2023-09-25T09:17:59.043Z,3.30
2023-09-25T09:20:37.566Z,3.97
2023-09-25T09:23:07.419Z,1.88
2023-09-25T09:25:34.974Z,2.67
2023-09-25T09:28:04.897Z,2.15
2023-09-25T09:30:31.934Z,2.33
2023-09-25T09:32:58.842Z,2.55
2023-09-25T09:35:28.693Z,3.65
2023-09-25T09:37:57.657Z,1.83
2023-09-25T09:40:26.320Z,2.42
2023-09-25T09:42:54.358Z,2.15
2023-09-25T09:45:22.609Z,2.20
2023-09-25T09:47:52.177Z,2.20
2023-09-25T09:50:24.098Z,1.95
2023-09-25T09:52:51.696Z,2.53
2023-09-25T09:55:21.684Z,1.83
2023-09-25T09:57:52.030Z,3.30
2023-09-25T10:00:19.153Z,5.43
2023-09-25T10:02:47.961Z,3.97
2023-09-25T10:05:16.325Z,3.65
2023-09-25T10:08:11.210Z,2.70
2023-09-25T10:11:17.453Z,3.63
2023-09-25T10:13:44.294Z,2.58
2023-09-25T10:16:13.534Z,2.42
2023-09-25T10:18:42.675Z,3.55
2023-09-25T10:21:15.373Z,1.60
2023-09-25T10:23:48.178Z,2.15
2023-09-25T10:26:21.658Z,2.42
2023-09-25T10:29:13.281Z,2.20
2023-09-25T10:31:45.413Z,3.55
2023-09-25T10:34:12.324Z,1.17
2023-09-25T10:36:48.953Z,1.90
2023-09-25T10:39:18.036Z,1.85
2023-09-25T10:41:48.275Z,1.60
2023-09-25T10:44:16.344Z,1.98
2023-09-25T10:46:43.186Z,1.27
2023-09-25T10:49:10.144Z,1.58
2023-09-25T10:51:37.405Z,1.30
2023-09-25T10:54:04.559Z,1.40
2023-09-25T10:56:31.811Z,3.50
2023-09-25T10:58:58.842Z,1.95
2023-09-25T11:01:28.845Z,1.15
2023-09-25T11:03:58.601Z,2.20
2023-09-25T11:06:26.535Z,1.80
2023-09-25T11:09:07.164Z,1.33
2023-09-25T11:11:33.966Z,1.30
2023-09-25T11:14:00.845Z,1.00
2023-09-25T11:16:28.532Z,1.52
2023-09-25T11:19:12.057Z,2.60
2023-09-25T11:21:41.071Z,1.20
2023-09-25T11:24:09.732Z,2.20
2023-09-25T11:26:40.677Z,2.28
2023-09-25T11:29:12.006Z,1.35
2023-09-25T11:31:59.272Z,1.48
2023-09-25T11:34:27.161Z,1.30
2023-09-25T11:36:54.513Z,1.67
2023-09-25T11:39:21.279Z,3.10
2023-09-25T11:41:47.969Z,2.50
2023-09-25T11:44:15.501Z,2.05
2023-09-25T11:46:45.803Z,1.77
2023-09-25T11:49:13.602Z,1.58
2023-09-25T11:51:40.766Z,3.53
2023-09-25T11:54:07.571Z,3.45
2023-09-25T11:56:34.549Z,1.27
2023-09-25T11:59:04.234Z,1.70
2023-09-25T12:01:30.954Z,4.20
2023-09-25T12:03:58.619Z,1.60
2023-09-25T12:06:25.932Z,2.15
2023-09-25T12:08:53.013Z,1.65
2023-09-25T12:11:19.908Z,1.58
2023-09-25T12:13:46.555Z,2.53
2023-09-25T12:16:13.931Z,1.90
2023-09-25T12:18:40.877Z,0.80
2023-09-25T12:21:09.987Z,1.80
2023-09-25T12:23:36.923Z,1.83
2023-09-25T12:26:03.658Z,3.15
2023-09-25T12:28:30.550Z,1.10
2023-09-25T12:30:58.156Z,1.65
2023-09-25T12:33:25.100Z,1.75
2023-09-25T12:35:52.556Z,2.75
2023-09-25T12:38:19.276Z,0.95
2023-09-25T12:40:46.031Z,1.08
2023-09-25T12:43:12.797Z,0.60
2023-09-25T12:45:39.550Z,1.05
2023-09-25T12:48:07.418Z,1.02
2023-09-25T12:50:34.885Z,1.45
2023-09-25T12:53:01.873Z,2.78
2023-09-25T12:55:32.238Z,2.13
2023-09-25T12:57:59.548Z,2.33
2023-09-25T13:00:26.654Z,1.00
2023-09-25T13:02:54.021Z,1.38
2023-09-25T13:05:20.715Z,2.08
2023-09-25T13:07:47.465Z,2.05
2023-09-25T13:10:14.330Z,1.27
2023-09-25T13:12:41.100Z,1.02
2023-09-25T13:15:08.488Z,1.20
2023-09-25T13:17:36.725Z,5.28
2023-09-25T13:20:08.405Z,1.70
2023-09-25T13:22:38.672Z,1.20
2023-09-25T13:25:06.806Z,1.10
2023-09-25T13:27:33.773Z,0.90
2023-09-25T13:30:00.605Z,1.67
2023-09-25T13:32:27.355Z,0.95
2023-09-25T13:34:54.066Z,1.45
2023-09-25T13:37:20.728Z,1.10
2023-09-25T13:39:48.108Z,1.75
2023-09-25T13:42:14.830Z,0.88
2023-09-25T13:44:42.822Z,1.67
2023-09-25T13:47:11.242Z,1.40
2023-09-25T13:49:37.832Z,1.05
2023-09-25T13:52:04.559Z,2.58
2023-09-25T13:54:31.880Z,1.27
2023-09-25T13:56:59.374Z,1.38
2023-09-25T13:59:26.409Z,1.45
2023-09-25T14:01:53.200Z,2.63
2023-09-25T14:04:20.240Z,1.80
2023-09-25T14:06:46.917Z,1.60
2023-09-25T14:09:13.725Z,2.05
2023-09-25T14:11:40.788Z,1.42
2023-09-25T14:14:09.356Z,2.22
2023-09-25T14:16:36.634Z,1.38
2023-09-25T14:19:04.150Z,1.15
2023-09-25T14:21:31.012Z,1.17
2023-09-25T14:23:57.709Z,0.90
2023-09-25T14:26:24.308Z,2.10
2023-09-25T14:28:50.990Z,1.17
2023-09-25T14:31:19.309Z,1.92
2023-09-25T14:33:46.263Z,1.42
2023-09-25T14:36:13.178Z,1.20
2023-09-25T14:38:39.901Z,1.83
2023-09-25T14:41:09.196Z,1.23
2023-09-25T14:43:35.827Z,3.45
2023-09-25T14:46:02.614Z,2.28
2023-09-25T14:48:29.642Z,3.33
2023-09-25T14:50:57.564Z,3.35
2023-09-25T14:53:24.431Z,2.38
2023-09-25T14:55:57.008Z,1.58
2023-09-25T14:58:24.948Z,1.08
2023-09-25T15:00:59.095Z,2.60
2023-09-25T15:03:27.406Z,1.58
2023-09-25T15:05:54.449Z,2.00
2023-09-25T15:08:24.616Z,1.65
2023-09-25T15:10:52.437Z,1.92
2023-09-25T15:13:19.141Z,2.75
2023-09-25T15:15:45.849Z,1.88
2023-09-25T15:18:12.600Z,3.10
2023-09-25T15:20:39.399Z,1.75
2023-09-25T15:23:06.086Z,3.63
2023-09-25T15:25:32.688Z,2.50
2023-09-25T15:27:59.471Z,1.73
2023-09-25T15:30:26.310Z,1.75
2023-09-25T15:32:53.560Z,2.92
2023-09-25T15:35:21.446Z,4.07
2023-09-25T15:37:48.468Z,4.63
2023-09-25T15:40:15.542Z,5.05
2023-09-25T15:42:42.381Z,5.13
2023-09-25T15:45:09.440Z,3.95
2023-09-25T15:47:36.212Z,2.85
2023-09-25T15:50:03.301Z,2.17
2023-09-25T15:52:29.963Z,2.58
2023-09-25T15:54:58.825Z,4.50
2023-09-25T15:57:27.257Z,5.68
2023-09-25T15:59:54.018Z,6.65
2023-09-25T16:02:22.049Z,2.70
2023-09-25T16:04:49.091Z,3.03
2023-09-25T16:07:15.968Z,5.03
2023-09-25T16:09:42.779Z,12.52
2023-09-25T16:12:09.520Z,8.65
2023-09-25T16:14:36.223Z,10.90
2023-09-25T16:17:02.864Z,3.03
2023-09-25T16:19:29.512Z,2.88
2023-09-25T16:21:56.150Z,3.92
2023-09-25T16:24:22.853Z,5.32
2023-09-25T16:26:49.736Z,5.30
2023-09-25T16:29:16.380Z,3.42
2023-09-25T16:31:43.096Z,3.15
2023-09-25T16:34:09.789Z,4.68
2023-09-25T16:36:36.447Z,3.92
2023-09-25T16:39:04.736Z,5.70
2023-09-25T16:41:31.775Z,4.90
2023-09-25T16:43:58.379Z,5.32
2023-09-25T16:46:25.302Z,4.43
2023-09-25T16:48:52.092Z,3.75
2023-09-25T16:51:18.809Z,4.78
2023-09-25T16:53:45.669Z,5.88
2023-09-25T16:56:12.567Z,3.30
2023-09-25T16:58:39.922Z,4.88
2023-09-25T17:01:09.437Z,5.32
2023-09-25T17:03:36.297Z,6.90
2023-09-25T17:06:03.379Z,6.53
2023-09-25T17:08:30.342Z,5.82
2023-09-25T17:10:57.095Z,5.10
2023-09-25T17:13:25.499Z,4.15
2023-09-25T17:15:52.285Z,8.23
2023-09-25T17:18:19.915Z,5.88
2023-09-25T17:20:46.562Z,5.13
2023-09-25T17:23:13.228Z,4.30
2023-09-25T17:25:39.861Z,4.45
2023-09-25T17:28:07.235Z,5.65
2023-09-25T17:30:35.738Z,9.52
2023-09-25T17:33:03.636Z,4.35
2023-09-25T17:35:31.882Z,3.78
2023-09-25T17:38:00.614Z,3.78
2023-09-25T17:40:27.927Z,6.03
2023-09-25T17:42:54.589Z,3.30
2023-09-25T17:45:24.117Z,3.92
2023-09-25T17:47:51.067Z,4.30
2023-09-25T17:50:18.169Z,6.30
2023-09-25T17:52:48.660Z,5.68
2023-09-25T17:57:44.391Z,7.57
2023-09-25T18:00:11.462Z,6.68
2023-09-25T18:02:38.423Z,8.45
2023-09-25T18:05:05.629Z,6.97
2023-09-25T18:07:32.420Z,6.72
2023-09-25T18:09:59.695Z,7.95
2023-09-25T18:12:26.517Z,7.95
2023-09-25T18:14:53.260Z,7.32
2023-09-25T18:17:19.985Z,8.98
2023-09-25T18:19:46.900Z,11.23
2023-09-25T18:22:13.522Z,6.38
2023-09-25T18:24:41.219Z,8.55
2023-09-25T18:27:08.368Z,8.35
2023-09-25T18:29:36.748Z,8.02
2023-09-25T18:32:04.806Z,16.70
2023-09-25T18:34:31.958Z,5.18
2023-09-25T18:36:59.010Z,6.22
2023-09-25T18:39:27.175Z,5.32
2023-09-25T18:41:55.430Z,7.57
2023-09-25T18:44:24.185Z,8.10
2023-09-25T18:46:51.799Z,6.50
2023-09-25T18:49:19.150Z,5.05
2023-09-25T18:51:46.182Z,5.35
2023-09-25T18:54:13.639Z,7.18
2023-09-25T18:56:40.754Z,8.07
2023-09-25T18:59:09.287Z,6.03
2023-09-25T19:01:36.560Z,8.25
2023-09-25T19:04:04.379Z,9.23
2023-09-25T19:06:31.202Z,7.05
2023-09-25T19:08:57.859Z,6.70
2023-09-25T19:11:27.143Z,7.60
2023-09-25T19:13:53.800Z,10.00
2023-09-25T19:16:21.386Z,11.98
2023-09-25T19:18:49.094Z,12.25
2023-09-25T19:21:15.732Z,8.95
2023-09-25T19:23:42.549Z,9.57
2023-09-25T19:26:09.249Z,8.07
2023-09-25T19:28:36.225Z,7.25
2023-09-25T19:31:02.992Z,7.85
2023-09-25T19:33:53.998Z,7.30
2023-09-25T19:36:19.616Z,5.90
2023-09-25T19:38:46.613Z,6.05
2023-09-25T19:41:13.645Z,5.57
2023-09-25T19:43:40.225Z,6.80
2023-09-25T19:46:08.502Z,6.72
2023-09-25T19:48:36.048Z,7.78
2023-09-25T19:51:03.142Z,7.88
2023-09-25T19:53:29.802Z,6.43
2023-09-25T19:55:56.469Z,5.53
2023-09-25T19:58:23.347Z,6.43
2023-09-25T20:00:50.105Z,5.15
2023-09-25T20:03:17.266Z,4.45
2023-09-25T20:05:44.499Z,6.60
2023-09-25T20:08:11.311Z,5.53
2023-09-25T20:10:38.192Z,7.07
2023-09-25T20:13:04.895Z,4.95
2023-09-25T20:15:31.549Z,3.88
2023-09-25T20:17:58.357Z,5.47
2023-09-25T20:20:25.439Z,5.32
2023-09-25T20:22:54.996Z,5.82
2023-09-25T20:25:22.181Z,7.50
2023-09-25T20:27:48.798Z,5.38
2023-09-25T20:30:15.584Z,6.88
2023-09-25T20:32:42.262Z,8.07
2023-09-25T20:35:09.465Z,8.45
2023-09-25T20:37:36.068Z,5.20
2023-09-25T20:40:03.010Z,7.68
2023-09-25T20:42:29.718Z,5.22
2023-09-25T20:44:56.411Z,5.55
2023-09-25T20:47:23.079Z,5.07
2023-09-25T20:49:49.749Z,6.05
2023-09-25T20:52:16.558Z,5.65
2023-09-25T20:54:43.217Z,4.15
2023-09-25T20:57:09.888Z,5.43
2023-09-25T20:59:36.538Z,6.05
2023-09-25T21:02:03.231Z,6.57
2023-09-25T21:04:30.017Z,5.93
2023-09-25T21:06:57.327Z,4.35
2023-09-25T21:09:24.011Z,3.92
2023-09-25T21:11:50.629Z,4.65
2023-09-25T21:14:17.360Z,4.65
2023-09-25T21:16:44.325Z,5.40
2023-09-25T21:19:11.128Z,4.43
2023-09-25T21:21:37.920Z,4.32
2023-09-25T21:24:05.012Z,4.43
2023-09-25T21:26:31.922Z,4.35
2023-09-25T21:28:58.623Z,4.70
2023-09-25T21:31:26.201Z,5.63
2023-09-25T21:33:53.827Z,4.03
2023-09-25T21:36:20.837Z,4.97
2023-09-25T21:38:49.182Z,7.03
2023-09-25T21:41:15.880Z,6.35
2023-09-25T21:43:43.010Z,5.72
2023-09-25T21:46:10.317Z,6.13
2023-09-25T21:48:39.525Z,5.00
2023-09-25T21:51:06.237Z,5.88
2023-09-25T21:53:32.954Z,4.95
2023-09-25T21:55:59.725Z,5.68
2023-09-25T21:58:26.444Z,4.75
2023-09-25T22:00:53.910Z,5.68
2023-09-25T22:03:20.836Z,5.72
2023-09-25T22:05:47.668Z,4.55
2023-09-25T22:08:14.406Z,4.82
2023-09-25T22:10:41.066Z,4.97
2023-09-25T22:13:08.011Z,6.53
2023-09-25T22:15:34.779Z,5.38
2023-09-25T22:18:01.688Z,6.20
2023-09-25T22:20:28.426Z,4.63
2023-09-25T22:22:55.406Z,4.65
2023-09-25T22:25:23.129Z,7.03
2023-09-25T22:27:53.161Z,5.28
2023-09-25T22:30:20.008Z,4.80
2023-09-25T22:32:49.351Z,4.65
2023-09-25T22:35:16.467Z,5.82
2023-09-25T22:38:06.329Z,5.13
2023-09-25T22:40:35.045Z,5.60
2023-09-25T22:43:02.627Z,4.43
2023-09-25T22:45:30.115Z,6.53
2023-09-25T22:47:58.838Z,5.32
2023-09-25T22:50:27.079Z,4.97
2023-09-25T22:52:54.038Z,5.07
2023-09-25T22:55:21.893Z,4.22
2023-09-25T22:57:49.070Z,4.18
2023-09-25T23:00:20.262Z,4.50
2023-09-25T23:02:48.052Z,4.65
2023-09-25T23:05:15.657Z,5.20
2023-09-25T23:07:49.356Z,4.32
2023-09-25T23:10:17.195Z,3.67
2023-09-25T23:12:45.779Z,5.38
2023-09-25T23:15:14.838Z,3.80
2023-09-25T23:17:42.890Z,5.22
2023-09-25T23:20:31.032Z,4.78
2023-09-25T23:22:57.828Z,4.72
2023-09-25T23:25:27.467Z,4.00
2023-09-25T23:27:54.944Z,4.38
2023-09-25T23:30:22.906Z,4.70
2023-09-25T23:32:50.892Z,5.50
2023-09-25T23:35:18.261Z,4.93
2023-09-25T23:37:47.787Z,3.80
2023-09-25T23:40:17.522Z,3.90
2023-09-25T23:42:44.849Z,3.85
2023-09-25T23:45:15.587Z,4.90
2023-09-25T23:50:11.479Z,5.40
2023-09-25T23:52:40.172Z,4.55
2023-09-25T23:55:08.370Z,4.15
2023-09-25T23:57:39.651Z,4.85
